sensor_id;sensor_type;location;lat;lon;timestamp;pressure;altitude;pressure_sealevel;temperature;humidity
57668;BME280;43499;52.366;12.912;2024-02-23T00:00:22;98073.75;;;12.01;92.90
57668;BME280;43499;52.366;12.912;2024-02-23T00:01:23;98079.81;;;11.73;94.49
57668;BME280;43499;52.366;12.912;2024-02-23T00:02:24;98095.78;;;11.79;95.29
57668;BME280;43499;52.366;12.912;2024-02-23T00:03:25;98100.94;;;11.76;94.92
57668;BME280;43499;52.366;12.912;2024-02-23T00:04:26;98098.00;;;11.67;94.66
57668;BME280;43499;52.366;12.912;2024-02-23T00:05:27;98111.69;;;11.82;94.87
57668;BME280;43499;52.366;12.912;2024-02-23T00:06:28;98096.63;;;11.78;93.75
57668;BME280;43499;52.366;12.912;2024-02-23T00:07:29;98116.34;;;11.91;94.25
57668;BME280;43499;52.366;12.912;2024-02-23T00:08:31;98118.28;;;11.97;92.96
57668;BME280;43499;52.366;12.912;2024-02-23T00:09:32;98095.97;;;11.85;93.11
57668;BME280;43499;52.366;12.912;2024-02-23T00:10:33;98108.22;;;11.83;93.82
57668;BME280;43499;52.366;12.912;2024-02-23T00:11:34;98105.03;;;11.94;93.46
57668;BME280;43499;52.366;12.912;2024-02-23T00:12:41;98086.97;;;12.04;92.40
57668;BME280;43499;52.366;12.912;2024-02-23T00:13:42;98097.63;;;12.08;92.14
57668;BME280;43499;52.366;12.912;2024-02-23T00:14:42;98079.22;;;12.09;91.50
57668;BME280;43499;52.366;12.912;2024-02-23T00:15:43;98075.13;;;12.17;91.38
57668;BME280;43499;52.366;12.912;2024-02-23T00:16:44;98093.84;;;12.27;91.05
57668;BME280;43499;52.366;12.912;2024-02-23T00:17:45;98092.72;;;12.18;91.37
57668;BME280;43499;52.366;12.912;2024-02-23T00:18:47;98064.94;;;12.01;91.32
57668;BME280;43499;52.366;12.912;2024-02-23T00:19:48;98094.16;;;11.83;91.55
57668;BME280;43499;52.366;12.912;2024-02-23T00:20:49;98107.22;;;12.06;92.22
57668;BME280;43499;52.366;12.912;2024-02-23T00:21:50;98078.16;;;11.77;93.16
57668;BME280;43499;52.366;12.912;2024-02-23T00:22:53;98081.09;;;11.86;92.38
57668;BME280;43499;52.366;12.912;2024-02-23T00:23:54;98082.47;;;12.00;91.55
57668;BME280;43499;52.366;12.912;2024-02-23T00:24:55;98087.56;;;11.96;92.30
57668;BME280;43499;52.366;12.912;2024-02-23T00:25:56;98084.81;;;11.93;90.67
57668;BME280;43499;52.366;12.912;2024-02-23T00:26:57;98094.84;;;12.03;90.10
57668;BME280;43499;52.366;12.912;2024-02-23T00:27:58;98088.63;;;12.01;90.90
57668;BME280;43499;52.366;12.912;2024-02-23T00:28:59;98076.72;;;11.86;90.51
57668;BME280;43499;52.366;12.912;2024-02-23T00:30:01;98078.00;;;11.98;90.33
57668;BME280;43499;52.366;12.912;2024-02-23T00:31:02;98067.59;;;12.02;89.52
57668;BME280;43499;52.366;12.912;2024-02-23T00:32:03;98086.16;;;12.06;88.78
57668;BME280;43499;52.366;12.912;2024-02-23T00:33:04;98098.75;;;12.16;88.86
57668;BME280;43499;52.366;12.912;2024-02-23T00:34:05;98101.59;;;12.22;88.31
57668;BME280;43499;52.366;12.912;2024-02-23T00:35:11;98081.34;;;11.94;88.59
57668;BME280;43499;52.366;12.912;2024-02-23T00:36:12;98112.44;;;12.04;88.36
57668;BME280;43499;52.366;12.912;2024-02-23T00:37:13;98122.41;;;12.14;88.08
57668;BME280;43499;52.366;12.912;2024-02-23T00:38:14;98118.25;;;11.95;88.54
57668;BME280;43499;52.366;12.912;2024-02-23T00:39:15;98120.53;;;12.10;88.23
57668;BME280;43499;52.366;12.912;2024-02-23T00:40:16;98110.94;;;12.12;88.56
57668;BME280;43499;52.366;12.912;2024-02-23T00:41:17;98118.88;;;12.14;87.64
57668;BME280;43499;52.366;12.912;2024-02-23T00:42:18;98099.44;;;12.10;87.78
57668;BME280;43499;52.366;12.912;2024-02-23T00:43:19;98087.91;;;12.05;87.15
57668;BME280;43499;52.366;12.912;2024-02-23T00:44:20;98111.66;;;12.08;87.30
57668;BME280;43499;52.366;12.912;2024-02-23T00:45:21;98114.91;;;12.27;86.28
57668;BME280;43499;52.366;12.912;2024-02-23T00:46:22;98125.06;;;12.14;86.53
57668;BME280;43499;52.366;12.912;2024-02-23T00:47:23;98116.50;;;12.22;85.66
57668;BME280;43499;52.366;12.912;2024-02-23T00:48:24;98118.09;;;12.44;85.24
57668;BME280;43499;52.366;12.912;2024-02-23T00:49:25;98131.84;;;12.35;84.98
57668;BME280;43499;52.366;12.912;2024-02-23T00:50:26;98142.97;;;12.26;85.84
57668;BME280;43499;52.366;12.912;2024-02-23T00:51:27;98134.75;;;12.43;85.49
57668;BME280;43499;52.366;12.912;2024-02-23T00:52:28;98142.94;;;12.52;85.04
57668;BME280;43499;52.366;12.912;2024-02-23T00:53:31;98136.44;;;12.13;84.83
57668;BME280;43499;52.366;12.912;2024-02-23T00:54:32;98130.75;;;12.28;84.15
57668;BME280;43499;52.366;12.912;2024-02-23T00:55:33;98141.81;;;12.44;83.91
57668;BME280;43499;52.366;12.912;2024-02-23T00:56:34;98142.59;;;12.41;83.94
57668;BME280;43499;52.366;12.912;2024-02-23T00:57:36;98140.50;;;12.31;84.88
57668;BME280;43499;52.366;12.912;2024-02-23T00:58:37;98138.31;;;12.45;84.87
57668;BME280;43499;52.366;12.912;2024-02-23T00:59:38;98130.03;;;12.32;84.13
57668;BME280;43499;52.366;12.912;2024-02-23T01:00:39;98141.81;;;12.44;85.37
57668;BME280;43499;52.366;12.912;2024-02-23T01:01:40;98140.88;;;12.43;84.44
57668;BME280;43499;52.366;12.912;2024-02-23T01:02:41;98147.19;;;12.47;83.70
57668;BME280;43499;52.366;12.912;2024-02-23T01:03:42;98162.72;;;12.39;83.53
57668;BME280;43499;52.366;12.912;2024-02-23T01:04:43;98158.19;;;12.35;84.52
57668;BME280;43499;52.366;12.912;2024-02-23T01:05:45;98158.59;;;12.47;83.06
57668;BME280;43499;52.366;12.912;2024-02-23T01:06:46;98156.25;;;12.02;83.85
57668;BME280;43499;52.366;12.912;2024-02-23T01:07:47;98143.50;;;12.14;84.62
57668;BME280;43499;52.366;12.912;2024-02-23T01:08:49;98162.91;;;12.45;82.76
57668;BME280;43499;52.366;12.912;2024-02-23T01:09:50;98170.56;;;12.38;82.43
57668;BME280;43499;52.366;12.912;2024-02-23T01:10:51;98169.78;;;12.40;82.25
57668;BME280;43499;52.366;12.912;2024-02-23T01:11:53;98174.00;;;12.35;82.32
57668;BME280;43499;52.366;12.912;2024-02-23T01:12:54;98190.06;;;12.43;82.43
57668;BME280;43499;52.366;12.912;2024-02-23T01:13:55;98189.06;;;12.39;80.83
57668;BME280;43499;52.366;12.912;2024-02-23T01:14:57;98201.41;;;12.40;81.42
57668;BME280;43499;52.366;12.912;2024-02-23T01:15:58;98202.53;;;12.48;80.52
57668;BME280;43499;52.366;12.912;2024-02-23T01:16:59;98190.06;;;12.43;81.62
57668;BME280;43499;52.366;12.912;2024-02-23T01:18:00;98179.34;;;12.37;80.33
57668;BME280;43499;52.366;12.912;2024-02-23T01:19:01;98199.25;;;12.56;80.57
57668;BME280;43499;52.366;12.912;2024-02-23T01:20:04;98186.22;;;12.60;79.63
57668;BME280;43499;52.366;12.912;2024-02-23T01:21:06;98203.34;;;12.46;79.96
57668;BME280;43499;52.366;12.912;2024-02-23T01:22:08;98188.97;;;12.36;80.49
57668;BME280;43499;52.366;12.912;2024-02-23T01:23:09;98204.88;;;12.39;79.99
57668;BME280;43499;52.366;12.912;2024-02-23T01:24:10;98211.31;;;12.49;79.79
57668;BME280;43499;52.366;12.912;2024-02-23T01:25:11;98192.97;;;12.25;78.44
57668;BME280;43499;52.366;12.912;2024-02-23T01:26:12;98219.50;;;12.57;76.08
57668;BME280;43499;52.366;12.912;2024-02-23T01:27:14;98218.91;;;12.38;75.96
57668;BME280;43499;52.366;12.912;2024-02-23T01:28:15;98213.81;;;12.44;74.44
57668;BME280;43499;52.366;12.912;2024-02-23T01:29:16;98225.41;;;12.49;74.82
57668;BME280;43499;52.366;12.912;2024-02-23T01:30:17;98235.22;;;12.54;73.25
57668;BME280;43499;52.366;12.912;2024-02-23T01:31:19;98220.47;;;12.33;72.88
57668;BME280;43499;52.366;12.912;2024-02-23T01:32:20;98244.44;;;12.68;71.68
57668;BME280;43499;52.366;12.912;2024-02-23T01:33:21;98233.09;;;12.43;71.60
57668;BME280;43499;52.366;12.912;2024-02-23T01:34:22;98243.59;;;12.42;69.48
57668;BME280;43499;52.366;12.912;2024-02-23T01:35:23;98228.06;;;12.24;69.53
57668;BME280;43499;52.366;12.912;2024-02-23T01:36:24;98244.28;;;12.36;69.01
57668;BME280;43499;52.366;12.912;2024-02-23T01:37:25;98254.09;;;12.40;67.94
57668;BME280;43499;52.366;12.912;2024-02-23T01:38:26;98260.09;;;12.36;66.62
57668;BME280;43499;52.366;12.912;2024-02-23T01:39:31;98277.84;;;12.42;66.44
57668;BME280;43499;52.366;12.912;2024-02-23T01:40:32;98258.94;;;12.28;66.56
57668;BME280;43499;52.366;12.912;2024-02-23T01:41:33;98281.41;;;12.42;66.54
57668;BME280;43499;52.366;12.912;2024-02-23T01:42:34;98266.56;;;12.20;65.93
57668;BME280;43499;52.366;12.912;2024-02-23T01:43:35;98290.75;;;12.34;65.13
57668;BME280;43499;52.366;12.912;2024-02-23T01:44:36;98269.63;;;12.07;66.12
57668;BME280;43499;52.366;12.912;2024-02-23T01:45:37;98295.44;;;12.43;65.18
57668;BME280;43499;52.366;12.912;2024-02-23T01:46:39;98292.50;;;12.33;65.86
57668;BME280;43499;52.366;12.912;2024-02-23T01:47:40;98295.91;;;12.31;64.92
57668;BME280;43499;52.366;12.912;2024-02-23T01:48:41;98292.19;;;12.24;65.60
57668;BME280;43499;52.366;12.912;2024-02-23T01:49:43;98281.22;;;12.12;65.55
57668;BME280;43499;52.366;12.912;2024-02-23T01:50:46;98314.25;;;12.28;64.26
57668;BME280;43499;52.366;12.912;2024-02-23T01:51:48;98316.88;;;12.28;65.29
57668;BME280;43499;52.366;12.912;2024-02-23T01:52:49;98318.84;;;12.09;64.72
57668;BME280;43499;52.366;12.912;2024-02-23T01:53:53;98320.56;;;12.07;65.08
57668;BME280;43499;52.366;12.912;2024-02-23T01:54:54;98321.00;;;11.97;65.30
57668;BME280;43499;52.366;12.912;2024-02-23T01:55:57;98321.50;;;11.86;65.76
57668;BME280;43499;52.366;12.912;2024-02-23T01:56:59;98326.50;;;12.27;65.03
57668;BME280;43499;52.366;12.912;2024-02-23T01:58:01;98336.91;;;12.48;64.03
57668;BME280;43499;52.366;12.912;2024-02-23T01:59:02;98336.16;;;12.02;64.91
57668;BME280;43499;52.366;12.912;2024-02-23T02:00:05;98354.22;;;12.40;63.09
57668;BME280;43499;52.366;12.912;2024-02-23T02:01:11;98360.59;;;11.98;63.00
57668;BME280;43499;52.366;12.912;2024-02-23T02:02:12;98364.28;;;11.81;62.92
57668;BME280;43499;52.366;12.912;2024-02-23T02:03:13;98380.06;;;12.03;60.48
57668;BME280;43499;52.366;12.912;2024-02-23T02:04:14;98372.44;;;11.87;60.38
57668;BME280;43499;52.366;12.912;2024-02-23T02:05:15;98364.56;;;11.88;58.89
57668;BME280;43499;52.366;12.912;2024-02-23T02:06:16;98387.47;;;11.91;58.83
57668;BME280;43499;52.366;12.912;2024-02-23T02:07:18;98396.34;;;11.93;59.25
57668;BME280;43499;52.366;12.912;2024-02-23T02:08:20;98404.72;;;12.06;59.36
57668;BME280;43499;52.366;12.912;2024-02-23T02:09:22;98376.69;;;11.83;57.97
57668;BME280;43499;52.366;12.912;2024-02-23T02:10:23;98396.25;;;11.67;58.78
57668;BME280;43499;52.366;12.912;2024-02-23T02:11:24;98383.50;;;11.78;57.75
57668;BME280;43499;52.366;12.912;2024-02-23T02:12:28;98382.63;;;11.78;58.00
57668;BME280;43499;52.366;12.912;2024-02-23T02:13:30;98395.88;;;12.03;57.22
57668;BME280;43499;52.366;12.912;2024-02-23T02:14:31;98417.69;;;11.99;59.24
57668;BME280;43499;52.366;12.912;2024-02-23T02:15:33;98423.91;;;12.01;58.12
57668;BME280;43499;52.366;12.912;2024-02-23T02:16:35;98409.03;;;11.58;57.37
57668;BME280;43499;52.366;12.912;2024-02-23T02:17:37;98432.34;;;11.94;58.40
57668;BME280;43499;52.366;12.912;2024-02-23T02:18:38;98428.91;;;11.95;57.97
57668;BME280;43499;52.366;12.912;2024-02-23T02:19:46;98416.63;;;11.50;57.49
57668;BME280;43499;52.366;12.912;2024-02-23T02:20:53;98442.41;;;11.82;57.53
57668;BME280;43499;52.366;12.912;2024-02-23T02:21:55;98443.31;;;11.82;58.92
57668;BME280;43499;52.366;12.912;2024-02-23T02:22:56;98442.88;;;11.71;57.41
57668;BME280;43499;52.366;12.912;2024-02-23T02:23:57;98453.72;;;11.79;57.56
57668;BME280;43499;52.366;12.912;2024-02-23T02:24:58;98451.63;;;11.70;58.00
57668;BME280;43499;52.366;12.912;2024-02-23T02:25:59;98453.53;;;11.52;58.90
57668;BME280;43499;52.366;12.912;2024-02-23T02:27:01;98465.59;;;11.69;59.06
57668;BME280;43499;52.366;12.912;2024-02-23T02:28:06;98455.38;;;11.54;58.21
57668;BME280;43499;52.366;12.912;2024-02-23T02:29:07;98468.28;;;11.48;60.01
57668;BME280;43499;52.366;12.912;2024-02-23T02:30:08;98474.63;;;11.53;58.90
57668;BME280;43499;52.366;12.912;2024-02-23T02:31:09;98461.19;;;11.68;59.44
57668;BME280;43499;52.366;12.912;2024-02-23T02:32:10;98483.78;;;11.63;58.57
57668;BME280;43499;52.366;12.912;2024-02-23T02:33:11;98470.31;;;11.55;60.24
57668;BME280;43499;52.366;12.912;2024-02-23T02:34:12;98482.41;;;11.29;59.96
57668;BME280;43499;52.366;12.912;2024-02-23T02:35:15;98465.91;;;11.33;59.35
57668;BME280;43499;52.366;12.912;2024-02-23T02:36:16;98474.53;;;11.50;59.87
57668;BME280;43499;52.366;12.912;2024-02-23T02:37:17;98484.50;;;11.59;58.89
57668;BME280;43499;52.366;12.912;2024-02-23T02:38:18;98487.91;;;11.35;59.32
57668;BME280;43499;52.366;12.912;2024-02-23T02:39:19;98463.53;;;11.39;59.18
57668;BME280;43499;52.366;12.912;2024-02-23T02:40:20;98479.91;;;11.32;58.17
57668;BME280;43499;52.366;12.912;2024-02-23T02:41:24;98474.75;;;11.35;58.63
57668;BME280;43499;52.366;12.912;2024-02-23T02:42:28;98475.47;;;11.10;58.65
57668;BME280;43499;52.366;12.912;2024-02-23T02:43:29;98485.81;;;11.26;58.24
57668;BME280;43499;52.366;12.912;2024-02-23T02:44:30;98485.22;;;11.55;57.76
57668;BME280;43499;52.366;12.912;2024-02-23T02:45:32;98488.19;;;11.41;57.65
57668;BME280;43499;52.366;12.912;2024-02-23T02:46:32;98476.81;;;11.21;58.40
57668;BME280;43499;52.366;12.912;2024-02-23T02:47:34;98484.94;;;11.27;58.71
57668;BME280;43499;52.366;12.912;2024-02-23T02:48:37;98465.00;;;11.11;58.70
57668;BME280;43499;52.366;12.912;2024-02-23T02:49:39;98490.69;;;11.38;57.64
57668;BME280;43499;52.366;12.912;2024-02-23T02:50:40;98496.53;;;11.31;58.07
57668;BME280;43499;52.366;12.912;2024-02-23T02:51:41;98498.38;;;11.34;58.51
57668;BME280;43499;52.366;12.912;2024-02-23T02:52:43;98476.81;;;11.21;57.76
57668;BME280;43499;52.366;12.912;2024-02-23T02:53:43;98489.53;;;11.32;57.42
57668;BME280;43499;52.366;12.912;2024-02-23T02:54:45;98490.41;;;11.11;57.62
57668;BME280;43499;52.366;12.912;2024-02-23T02:55:46;98496.72;;;11.36;57.22
57668;BME280;43499;52.366;12.912;2024-02-23T02:56:47;98488.09;;;11.40;56.81
57668;BME280;43499;52.366;12.912;2024-02-23T02:57:48;98494.97;;;11.15;57.67
57668;BME280;43499;52.366;12.912;2024-02-23T02:58:49;98513.19;;;11.32;57.07
57668;BME280;43499;52.366;12.912;2024-02-23T02:59:51;98510.84;;;11.38;57.61
57668;BME280;43499;52.366;12.912;2024-02-23T03:00:52;98510.94;;;11.41;57.10
57668;BME280;43499;52.366;12.912;2024-02-23T03:01:53;98521.28;;;11.36;57.98
57668;BME280;43499;52.366;12.912;2024-02-23T03:02:54;98523.56;;;11.29;56.94
57668;BME280;43499;52.366;12.912;2024-02-23T03:03:55;98538.28;;;11.23;57.89
57668;BME280;43499;52.366;12.912;2024-02-23T03:04:56;98515.47;;;11.03;58.19
57668;BME280;43499;52.366;12.912;2024-02-23T03:05:57;98522.13;;;10.94;57.74
57668;BME280;43499;52.366;12.912;2024-02-23T03:06:58;98533.84;;;11.22;56.93
57668;BME280;43499;52.366;12.912;2024-02-23T03:07:59;98528.09;;;11.11;58.14
57668;BME280;43499;52.366;12.912;2024-02-23T03:09:01;98538.81;;;11.16;58.57
57668;BME280;43499;52.366;12.912;2024-02-23T03:10:03;98528.34;;;10.96;58.88
57668;BME280;43499;52.366;12.912;2024-02-23T03:11:04;98540.81;;;11.01;57.93
57668;BME280;43499;52.366;12.912;2024-02-23T03:12:05;98540.47;;;10.93;57.77
57668;BME280;43499;52.366;12.912;2024-02-23T03:13:06;98529.50;;;11.03;57.43
57668;BME280;43499;52.366;12.912;2024-02-23T03:14:07;98535.06;;;11.09;57.45
57668;BME280;43499;52.366;12.912;2024-02-23T03:15:10;98509.06;;;10.76;58.23
57668;BME280;43499;52.366;12.912;2024-02-23T03:16:18;98542.72;;;11.05;57.31
57668;BME280;43499;52.366;12.912;2024-02-23T03:17:19;98545.84;;;10.96;56.87
57668;BME280;43499;52.366;12.912;2024-02-23T03:18:20;98544.78;;;11.12;58.58
57668;BME280;43499;52.366;12.912;2024-02-23T03:19:21;98535.88;;;11.08;56.35
57668;BME280;43499;52.366;12.912;2024-02-23T03:20:24;98526.81;;;11.02;56.59
57668;BME280;43499;52.366;12.912;2024-02-23T03:21:25;98550.09;;;10.92;57.31
57668;BME280;43499;52.366;12.912;2024-02-23T03:22:26;98555.53;;;10.97;56.46
57668;BME280;43499;52.366;12.912;2024-02-23T03:23:27;98557.03;;;11.11;56.79
57668;BME280;43499;52.366;12.912;2024-02-23T03:24:28;98557.13;;;11.13;56.27
57668;BME280;43499;52.366;12.912;2024-02-23T03:25:29;98553.50;;;11.11;57.19
57668;BME280;43499;52.366;12.912;2024-02-23T03:26:30;98558.34;;;11.21;56.76
57668;BME280;43499;52.366;12.912;2024-02-23T03:27:31;98556.53;;;11.20;56.63
57668;BME280;43499;52.366;12.912;2024-02-23T03:28:32;98563.19;;;11.12;56.80
57668;BME280;43499;52.366;12.912;2024-02-23T03:29:33;98557.47;;;11.01;57.31
57668;BME280;43499;52.366;12.912;2024-02-23T03:30:34;98552.09;;;10.98;56.86
57668;BME280;43499;52.366;12.912;2024-02-23T03:31:36;98555.53;;;10.97;55.99
57668;BME280;43499;52.366;12.912;2024-02-23T03:32:38;98574.75;;;11.16;57.18
57668;BME280;43499;52.366;12.912;2024-02-23T03:33:39;98573.88;;;11.15;57.30
57668;BME280;43499;52.366;12.912;2024-02-23T03:34:40;98575.53;;;11.13;57.13
57668;BME280;43499;52.366;12.912;2024-02-23T03:35:42;98572.81;;;11.11;57.60
57668;BME280;43499;52.366;12.912;2024-02-23T03:36:43;98572.41;;;10.83;57.86
57668;BME280;43499;52.366;12.912;2024-02-23T03:37:44;98569.84;;;10.84;58.11
57668;BME280;43499;52.366;12.912;2024-02-23T03:38:45;98573.31;;;11.03;56.89
57668;BME280;43499;52.366;12.912;2024-02-23T03:39:46;98566.69;;;10.91;57.79
57668;BME280;43499;52.366;12.912;2024-02-23T03:40:49;98570.53;;;11.00;56.97
57668;BME280;43499;52.366;12.912;2024-02-23T03:41:50;98586.88;;;11.12;57.20
57668;BME280;43499;52.366;12.912;2024-02-23T03:42:51;98589.22;;;11.06;56.84
57668;BME280;43499;52.366;12.912;2024-02-23T03:43:52;98594.53;;;10.88;57.75
57668;BME280;43499;52.366;12.912;2024-02-23T03:44:54;98580.09;;;10.98;57.57
57668;BME280;43499;52.366;12.912;2024-02-23T03:45:55;98604.78;;;11.01;57.26
57668;BME280;43499;52.366;12.912;2024-02-23T03:46:56;98614.25;;;10.98;58.04
57668;BME280;43499;52.366;12.912;2024-02-23T03:47:58;98605.34;;;10.94;57.38
57668;BME280;43499;52.366;12.912;2024-02-23T03:48:59;98604.00;;;10.84;57.39
57668;BME280;43499;52.366;12.912;2024-02-23T03:50:00;98609.41;;;10.87;58.88
57668;BME280;43499;52.366;12.912;2024-02-23T03:51:01;98601.38;;;10.84;57.95
57668;BME280;43499;52.366;12.912;2024-02-23T03:52:04;98627.47;;;10.99;57.71
57668;BME280;43499;52.366;12.912;2024-02-23T03:53:05;98619.19;;;11.09;58.38
57668;BME280;43499;52.366;12.912;2024-02-23T03:54:06;98629.81;;;11.13;57.37
57668;BME280;43499;52.366;12.912;2024-02-23T03:55:08;98630.75;;;11.13;58.15
57668;BME280;43499;52.366;12.912;2024-02-23T03:56:09;98632.44;;;10.93;58.54
57668;BME280;43499;52.366;12.912;2024-02-23T03:57:10;98625.53;;;10.95;57.90
57668;BME280;43499;52.366;12.912;2024-02-23T03:58:11;98637.44;;;11.06;57.87
57668;BME280;43499;52.366;12.912;2024-02-23T03:59:12;98640.47;;;11.16;57.77
57668;BME280;43499;52.366;12.912;2024-02-23T04:00:14;98626.84;;;11.05;58.70
57668;BME280;43499;52.366;12.912;2024-02-23T04:01:16;98631.47;;;10.71;58.29
57668;BME280;43499;52.366;12.912;2024-02-23T04:02:17;98657.28;;;11.00;57.97
57668;BME280;43499;52.366;12.912;2024-02-23T04:03:18;98666.25;;;10.65;57.79
57668;BME280;43499;52.366;12.912;2024-02-23T04:04:19;98619.25;;;10.35;56.91
57668;BME280;43499;52.366;12.912;2024-02-23T04:05:20;98651.09;;;10.79;56.08
57668;BME280;43499;52.366;12.912;2024-02-23T04:06:21;98669.81;;;10.86;56.38
57668;BME280;43499;52.366;12.912;2024-02-23T04:07:22;98659.41;;;10.89;56.35
57668;BME280;43499;52.366;12.912;2024-02-23T04:08:24;98648.50;;;10.61;56.57
57668;BME280;43499;52.366;12.912;2024-02-23T04:09:25;98673.13;;;10.82;55.99
57668;BME280;43499;52.366;12.912;2024-02-23T04:10:26;98654.97;;;10.50;56.04
57668;BME280;43499;52.366;12.912;2024-02-23T04:11:27;98668.50;;;10.58;56.06
57668;BME280;43499;52.366;12.912;2024-02-23T04:12:28;98676.06;;;10.70;56.88
57668;BME280;43499;52.366;12.912;2024-02-23T04:13:29;98657.81;;;10.37;56.43
57668;BME280;43499;52.366;12.912;2024-02-23T04:14:30;98688.09;;;10.64;55.61
57668;BME280;43499;52.366;12.912;2024-02-23T04:15:31;98687.47;;;10.70;56.03
57668;BME280;43499;52.366;12.912;2024-02-23T04:16:32;98700.16;;;10.79;55.90
57668;BME280;43499;52.366;12.912;2024-02-23T04:17:33;98692.84;;;10.91;54.80
57668;BME280;43499;52.366;12.912;2024-02-23T04:18:34;98679.25;;;10.82;55.64
57668;BME280;43499;52.366;12.912;2024-02-23T04:19:35;98662.72;;;10.47;55.33
57668;BME280;43499;52.366;12.912;2024-02-23T04:20:36;98697.09;;;10.70;55.26
57668;BME280;43499;52.366;12.912;2024-02-23T04:21:37;98697.66;;;10.82;55.48
57668;BME280;43499;52.366;12.912;2024-02-23T04:22:39;98691.25;;;10.95;54.80
57668;BME280;43499;52.366;12.912;2024-02-23T04:23:40;98695.75;;;10.98;54.22
57668;BME280;43499;52.366;12.912;2024-02-23T04:24:41;98713.56;;;10.85;55.40
57668;BME280;43499;52.366;12.912;2024-02-23T04:25:42;98699.19;;;10.59;54.86
57668;BME280;43499;52.366;12.912;2024-02-23T04:26:43;98719.16;;;10.73;54.84
57668;BME280;43499;52.366;12.912;2024-02-23T04:27:44;98709.84;;;10.80;55.14
57668;BME280;43499;52.366;12.912;2024-02-23T04:28:45;98719.56;;;10.28;55.38
57668;BME280;43499;52.366;12.912;2024-02-23T04:29:46;98723.47;;;10.37;55.69
57668;BME280;43499;52.366;12.912;2024-02-23T04:30:47;98730.09;;;10.83;55.55
57668;BME280;43499;52.366;12.912;2024-02-23T04:31:48;98731.97;;;10.67;54.17
57668;BME280;43499;52.366;12.912;2024-02-23T04:32:49;98710.59;;;10.59;55.23
57668;BME280;43499;52.366;12.912;2024-02-23T04:33:50;98728.63;;;10.52;56.29
57668;BME280;43499;52.366;12.912;2024-02-23T04:34:51;98746.53;;;10.60;55.78
57668;BME280;43499;52.366;12.912;2024-02-23T04:35:52;98753.97;;;10.51;55.51
57668;BME280;43499;52.366;12.912;2024-02-23T04:36:54;98757.28;;;10.65;55.71
57668;BME280;43499;52.366;12.912;2024-02-23T04:37:55;98748.34;;;10.61;55.23
57668;BME280;43499;52.366;12.912;2024-02-23T04:38:56;98750.47;;;10.69;54.83
57668;BME280;43499;52.366;12.912;2024-02-23T04:39:57;98761.06;;;10.35;55.15
57668;BME280;43499;52.366;12.912;2024-02-23T04:40:58;98761.81;;;10.33;55.10
57668;BME280;43499;52.366;12.912;2024-02-23T04:41:59;98738.94;;;10.30;55.32
57668;BME280;43499;52.366;12.912;2024-02-23T04:43:00;98767.78;;;10.47;57.85
57668;BME280;43499;52.366;12.912;2024-02-23T04:44:01;98765.31;;;10.15;55.71
57668;BME280;43499;52.366;12.912;2024-02-23T04:45:03;98780.16;;;10.15;56.23
57668;BME280;43499;52.366;12.912;2024-02-23T04:46:04;98753.94;;;10.33;55.93
57668;BME280;43499;52.366;12.912;2024-02-23T04:47:05;98785.13;;;10.43;54.86
57668;BME280;43499;52.366;12.912;2024-02-23T04:48:07;98794.16;;;10.67;54.95
57668;BME280;43499;52.366;12.912;2024-02-23T04:49:08;98780.63;;;10.41;54.50
57668;BME280;43499;52.366;12.912;2024-02-23T04:50:09;98778.88;;;10.07;56.42
57668;BME280;43499;52.366;12.912;2024-02-23T04:51:11;98795.25;;;10.19;55.86
57668;BME280;43499;52.366;12.912;2024-02-23T04:52:12;98800.31;;;10.32;54.46
57668;BME280;43499;52.366;12.912;2024-02-23T04:53:13;98812.69;;;10.35;53.77
57668;BME280;43499;52.366;12.912;2024-02-23T04:54:14;98806.00;;;10.40;53.84
57668;BME280;43499;52.366;12.912;2024-02-23T04:55:15;98800.97;;;10.28;54.94
57668;BME280;43499;52.366;12.912;2024-02-23T04:56:16;98817.47;;;10.26;55.05
57668;BME280;43499;52.366;12.912;2024-02-23T04:57:17;98822.16;;;10.31;54.70
57668;BME280;43499;52.366;12.912;2024-02-23T04:58:18;98815.56;;;10.05;54.84
57668;BME280;43499;52.366;12.912;2024-02-23T04:59:19;98822.69;;;10.08;55.32
57668;BME280;43499;52.366;12.912;2024-02-23T05:00:20;98824.13;;;10.19;54.93
57668;BME280;43499;52.366;12.912;2024-02-23T05:01:21;98832.66;;;10.31;55.81
57668;BME280;43499;52.366;12.912;2024-02-23T05:02:22;98838.88;;;10.33;54.20
57668;BME280;43499;52.366;12.912;2024-02-23T05:03:23;98814.88;;;10.09;54.31
57668;BME280;43499;52.366;12.912;2024-02-23T05:04:24;98845.09;;;10.35;54.34
57668;BME280;43499;52.366;12.912;2024-02-23T05:05:27;98825.06;;;9.86;56.23
57668;BME280;43499;52.366;12.912;2024-02-23T05:06:29;98830.38;;;10.04;55.97
57668;BME280;43499;52.366;12.912;2024-02-23T05:07:32;98856.22;;;10.13;54.85
57668;BME280;43499;52.366;12.912;2024-02-23T05:08:33;98841.28;;;10.12;54.80
57668;BME280;43499;52.366;12.912;2024-02-23T05:09:34;98830.97;;;10.15;54.24
57668;BME280;43499;52.366;12.912;2024-02-23T05:10:36;98856.69;;;10.23;54.11
57668;BME280;43499;52.366;12.912;2024-02-23T05:11:37;98839.88;;;10.19;53.69
57668;BME280;43499;52.366;12.912;2024-02-23T05:12:38;98848.84;;;10.06;54.17
57668;BME280;43499;52.366;12.912;2024-02-23T05:13:39;98858.94;;;9.98;53.97
57668;BME280;43499;52.366;12.912;2024-02-23T05:14:42;98876.31;;;9.96;53.69
57668;BME280;43499;52.366;12.912;2024-02-23T05:15:43;98854.81;;;9.70;53.62
57668;BME280;43499;52.366;12.912;2024-02-23T05:16:44;98870.34;;;9.82;54.97
57668;BME280;43499;52.366;12.912;2024-02-23T05:17:45;98857.47;;;9.87;53.93
57668;BME280;43499;52.366;12.912;2024-02-23T05:18:46;98864.41;;;9.86;53.81
57668;BME280;43499;52.366;12.912;2024-02-23T05:19:47;98866.50;;;9.76;54.21
57668;BME280;43499;52.366;12.912;2024-02-23T05:20:48;98872.88;;;9.81;53.79